sensor_id;sensor_type;location;lat;lon;timestamp;P1;durP1;ratioP1;P2;durP2;ratioP2
70132;SDS011;57495;49.922;7.966;2022-11-20T00:00:47;27.35;;;13.63;;
70132;SDS011;57495;49.922;7.966;2022-11-20T00:02:48;25.15;;;13.20;;
70132;SDS011;57495;49.922;7.966;2022-11-20T00:04:50;30.50;;;15.10;;
70132;SDS011;57495;49.922;7.966;2022-11-20T00:06:51;27.42;;;13.27;;
70132;SDS011;57495;49.922;7.966;2022-11-20T00:08:53;29.25;;;13.68;;
70132;SDS011;57495;49.922;7.966;2022-11-20T00:10:56;29.10;;;14.20;;
70132;SDS011;57495;49.922;7.966;2022-11-20T00:12:58;27.95;;;13.02;;
70132;SDS011;57495;49.922;7.966;2022-11-20T00:15:00;25.60;;;12.82;;
70132;SDS011;57495;49.922;7.966;2022-11-20T00:17:02;27.63;;;13.02;;
70132;SDS011;57495;49.922;7.966;2022-11-20T00:19:03;28.65;;;14.13;;
70132;SDS011;57495;49.922;7.966;2022-11-20T00:21:06;29.58;;;13.73;;
70132;SDS011;57495;49.922;7.966;2022-11-20T00:23:08;27.88;;;13.07;;
70132;SDS011;57495;49.922;7.966;2022-11-20T00:25:10;27.55;;;12.90;;
70132;SDS011;57495;49.922;7.966;2022-11-20T00:27:12;30.63;;;13.82;;
70132;SDS011;57495;49.922;7.966;2022-11-20T00:29:13;28.35;;;13.75;;
70132;SDS011;57495;49.922;7.966;2022-11-20T00:31:16;28.52;;;13.98;;
70132;SDS011;57495;49.922;7.966;2022-11-20T00:33:18;26.63;;;12.48;;
70132;SDS011;57495;49.922;7.966;2022-11-20T00:35:20;29.02;;;13.60;;
70132;SDS011;57495;49.922;7.966;2022-11-20T00:37:21;26.05;;;13.30;;
70132;SDS011;57495;49.922;7.966;2022-11-20T00:39:23;28.38;;;13.50;;
70132;SDS011;57495;49.922;7.966;2022-11-20T00:41:25;28.20;;;13.30;;
70132;SDS011;57495;49.922;7.966;2022-11-20T00:43:27;31.70;;;13.85;;
70132;SDS011;57495;49.922;7.966;2022-11-20T00:45:29;27.95;;;13.93;;
70132;SDS011;57495;49.922;7.966;2022-11-20T00:47:32;27.95;;;13.07;;
70132;SDS011;57495;49.922;7.966;2022-11-20T00:49:33;27.08;;;13.07;;
70132;SDS011;57495;49.922;7.966;2022-11-20T00:51:35;26.80;;;12.38;;
70132;SDS011;57495;49.922;7.966;2022-11-20T00:53:36;30.02;;;12.95;;
70132;SDS011;57495;49.922;7.966;2022-11-20T00:55:38;26.63;;;12.85;;
70132;SDS011;57495;49.922;7.966;2022-11-20T00:57:39;27.92;;;13.48;;
70132;SDS011;57495;49.922;7.966;2022-11-20T00:59:41;26.88;;;12.88;;
70132;SDS011;57495;49.922;7.966;2022-11-20T01:01:42;29.38;;;13.88;;
70132;SDS011;57495;49.922;7.966;2022-11-20T01:03:45;30.23;;;13.55;;
70132;SDS011;57495;49.922;7.966;2022-11-20T01:05:48;27.60;;;13.68;;
70132;SDS011;57495;49.922;7.966;2022-11-20T01:07:50;29.95;;;14.27;;
70132;SDS011;57495;49.922;7.966;2022-11-20T01:09:51;28.23;;;12.90;;
70132;SDS011;57495;49.922;7.966;2022-11-20T01:11:53;27.13;;;12.35;;
70132;SDS011;57495;49.922;7.966;2022-11-20T01:13:55;28.52;;;13.23;;
70132;SDS011;57495;49.922;7.966;2022-11-20T01:16:01;29.00;;;13.52;;
70132;SDS011;57495;49.922;7.966;2022-11-20T01:18:03;27.77;;;13.52;;
70132;SDS011;57495;49.922;7.966;2022-11-20T01:20:07;24.65;;;11.70;;
70132;SDS011;57495;49.922;7.966;2022-11-20T01:22:09;24.23;;;12.15;;
70132;SDS011;57495;49.922;7.966;2022-11-20T01:24:11;28.42;;;12.63;;
70132;SDS011;57495;49.922;7.966;2022-11-20T01:26:15;22.98;;;11.68;;
70132;SDS011;57495;49.922;7.966;2022-11-20T01:28:17;29.02;;;12.73;;
70132;SDS011;57495;49.922;7.966;2022-11-20T01:30:19;27.17;;;12.60;;
70132;SDS011;57495;49.922;7.966;2022-11-20T01:32:20;31.83;;;13.43;;
70132;SDS011;57495;49.922;7.966;2022-11-20T01:34:22;27.75;;;14.25;;
70132;SDS011;57495;49.922;7.966;2022-11-20T01:36:26;27.17;;;12.70;;
70132;SDS011;57495;49.922;7.966;2022-11-20T01:38:29;28.30;;;14.20;;
70132;SDS011;57495;49.922;7.966;2022-11-20T01:40:30;28.80;;;13.23;;
70132;SDS011;57495;49.922;7.966;2022-11-20T01:42:32;29.60;;;13.85;;
70132;SDS011;57495;49.922;7.966;2022-11-20T01:44:52;29.70;;;13.73;;
70132;SDS011;57495;49.922;7.966;2022-11-20T01:46:55;28.70;;;12.95;;
70132;SDS011;57495;49.922;7.966;2022-11-20T01:49:00;27.02;;;12.55;;
70132;SDS011;57495;49.922;7.966;2022-11-20T01:51:06;30.02;;;13.45;;
70132;SDS011;57495;49.922;7.966;2022-11-20T01:53:15;25.75;;;12.95;;
70132;SDS011;57495;49.922;7.966;2022-11-20T01:55:21;26.38;;;12.05;;
70132;SDS011;57495;49.922;7.966;2022-11-20T01:57:28;26.02;;;12.57;;
70132;SDS011;57495;49.922;7.966;2022-11-20T01:59:32;27.42;;;13.48;;
70132;SDS011;57495;49.922;7.966;2022-11-20T02:01:35;29.98;;;13.15;;
70132;SDS011;57495;49.922;7.966;2022-11-20T02:03:39;27.30;;;12.35;;
70132;SDS011;57495;49.922;7.966;2022-11-20T02:05:41;26.58;;;12.35;;
70132;SDS011;57495;49.922;7.966;2022-11-20T02:07:47;26.42;;;13.10;;
70132;SDS011;57495;49.922;7.966;2022-11-20T02:09:50;27.25;;;13.68;;
70132;SDS011;57495;49.922;7.966;2022-11-20T02:11:52;27.08;;;12.07;;
70132;SDS011;57495;49.922;7.966;2022-11-20T02:13:54;26.23;;;12.00;;
70132;SDS011;57495;49.922;7.966;2022-11-20T02:15:55;26.35;;;13.00;;
70132;SDS011;57495;49.922;7.966;2022-11-20T02:17:57;27.52;;;13.80;;
70132;SDS011;57495;49.922;7.966;2022-11-20T02:19:59;26.42;;;12.68;;
70132;SDS011;57495;49.922;7.966;2022-11-20T02:22:02;25.45;;;12.60;;
70132;SDS011;57495;49.922;7.966;2022-11-20T02:24:10;31.05;;;13.35;;
70132;SDS011;57495;49.922;7.966;2022-11-20T02:26:13;27.27;;;12.40;;
70132;SDS011;57495;49.922;7.966;2022-11-20T02:28:17;27.55;;;12.43;;
70132;SDS011;57495;49.922;7.966;2022-11-20T02:30:19;26.92;;;13.30;;
70132;SDS011;57495;49.922;7.966;2022-11-20T02:32:21;26.38;;;12.23;;
70132;SDS011;57495;49.922;7.966;2022-11-20T02:34:25;28.13;;;13.55;;
70132;SDS011;57495;49.922;7.966;2022-11-20T02:36:27;27.77;;;13.18;;
70132;SDS011;57495;49.922;7.966;2022-11-20T02:38:29;26.70;;;12.60;;
70132;SDS011;57495;49.922;7.966;2022-11-20T02:40:32;24.80;;;11.68;;
70132;SDS011;57495;49.922;7.966;2022-11-20T02:42:33;26.73;;;13.15;;
70132;SDS011;57495;49.922;7.966;2022-11-20T02:44:35;26.42;;;12.30;;
70132;SDS011;57495;49.922;7.966;2022-11-20T02:46:37;27.25;;;12.65;;
70132;SDS011;57495;49.922;7.966;2022-11-20T02:48:38;26.05;;;12.52;;
70132;SDS011;57495;49.922;7.966;2022-11-20T02:50:40;28.45;;;12.85;;
70132;SDS011;57495;49.922;7.966;2022-11-20T02:52:42;27.75;;;13.45;;
70132;SDS011;57495;49.922;7.966;2022-11-20T02:54:44;25.30;;;12.68;;
70132;SDS011;57495;49.922;7.966;2022-11-20T02:56:47;27.88;;;13.00;;
70132;SDS011;57495;49.922;7.966;2022-11-20T02:58:48;26.10;;;13.07;;
70132;SDS011;57495;49.922;7.966;2022-11-20T03:00:50;30.58;;;13.55;;
70132;SDS011;57495;49.922;7.966;2022-11-20T03:02:52;23.58;;;11.98;;
70132;SDS011;57495;49.922;7.966;2022-11-20T03:04:54;25.95;;;12.95;;
70132;SDS011;57495;49.922;7.966;2022-11-20T03:06:55;24.80;;;12.95;;
70132;SDS011;57495;49.922;7.966;2022-11-20T03:08:57;28.05;;;13.05;;
70132;SDS011;57495;49.922;7.966;2022-11-20T03:11:01;26.33;;;12.80;;
70132;SDS011;57495;49.922;7.966;2022-11-20T03:13:05;24.98;;;12.55;;
70132;SDS011;57495;49.922;7.966;2022-11-20T03:15:07;27.30;;;12.80;;
70132;SDS011;57495;49.922;7.966;2022-11-20T03:17:10;26.90;;;13.35;;
70132;SDS011;57495;49.922;7.966;2022-11-20T03:19:12;29.52;;;13.88;;
70132;SDS011;57495;49.922;7.966;2022-11-20T03:21:14;29.02;;;13.40;;
70132;SDS011;57495;49.922;7.966;2022-11-20T03:23:16;26.50;;;13.27;;
70132;SDS011;57495;49.922;7.966;2022-11-20T03:25:18;28.45;;;13.15;;
70132;SDS011;57495;49.922;7.966;2022-11-20T03:27:19;27.88;;;14.00;;
70132;SDS011;57495;49.922;7.966;2022-11-20T03:29:22;26.20;;;12.40;;
70132;SDS011;57495;49.922;7.966;2022-11-20T03:31:24;27.58;;;13.63;;
70132;SDS011;57495;49.922;7.966;2022-11-20T03:33:27;27.13;;;14.38;;
70132;SDS011;57495;49.922;7.966;2022-11-20T03:35:29;26.25;;;12.95;;
70132;SDS011;57495;49.922;7.966;2022-11-20T03:37:31;27.15;;;14.13;;
70132;SDS011;57495;49.922;7.966;2022-11-20T03:39:33;26.23;;;12.68;;
70132;SDS011;57495;49.922;7.966;2022-11-20T03:41:35;26.92;;;13.20;;
70132;SDS011;57495;49.922;7.966;2022-11-20T03:43:39;28.25;;;13.20;;
70132;SDS011;57495;49.922;7.966;2022-11-20T03:45:42;24.50;;;12.38;;
70132;SDS011;57495;49.922;7.966;2022-11-20T03:47:44;25.15;;;12.60;;
70132;SDS011;57495;49.922;7.966;2022-11-20T03:49:46;26.35;;;12.05;;
70132;SDS011;57495;49.922;7.966;2022-11-20T03:51:47;27.30;;;12.50;;
70132;SDS011;57495;49.922;7.966;2022-11-20T03:53:49;27.00;;;12.90;;
70132;SDS011;57495;49.922;7.966;2022-11-20T03:55:52;26.27;;;13.18;;
70132;SDS011;57495;49.922;7.966;2022-11-20T03:57:53;26.45;;;12.23;;
70132;SDS011;57495;49.922;7.966;2022-11-20T03:59:55;26.15;;;12.50;;
70132;SDS011;57495;49.922;7.966;2022-11-20T04:01:58;26.58;;;12.60;;
70132;SDS011;57495;49.922;7.966;2022-11-20T04:04:00;26.20;;;12.70;;
70132;SDS011;57495;49.922;7.966;2022-11-20T04:06:02;26.95;;;12.32;;
70132;SDS011;57495;49.922;7.966;2022-11-20T04:08:05;27.58;;;13.18;;
70132;SDS011;57495;49.922;7.966;2022-11-20T04:10:07;26.23;;;13.05;;
70132;SDS011;57495;49.922;7.966;2022-11-20T04:12:09;28.58;;;14.18;;
70132;SDS011;57495;49.922;7.966;2022-11-20T04:14:11;28.70;;;13.45;;
70132;SDS011;57495;49.922;7.966;2022-11-20T04:16:15;27.23;;;12.63;;
70132;SDS011;57495;49.922;7.966;2022-11-20T04:18:18;28.08;;;13.73;;
70132;SDS011;57495;49.922;7.966;2022-11-20T04:20:20;28.45;;;13.48;;
70132;SDS011;57495;49.922;7.966;2022-11-20T04:22:22;25.50;;;12.88;;
70132;SDS011;57495;49.922;7.966;2022-11-20T04:24:23;26.52;;;12.68;;
70132;SDS011;57495;49.922;7.966;2022-11-20T04:26:25;26.65;;;13.10;;
70132;SDS011;57495;49.922;7.966;2022-11-20T04:28:27;27.75;;;13.48;;
70132;SDS011;57495;49.922;7.966;2022-11-20T04:30:29;27.77;;;13.32;;
70132;SDS011;57495;49.922;7.966;2022-11-20T04:32:31;31.30;;;14.43;;
70132;SDS011;57495;49.922;7.966;2022-11-20T04:34:34;28.13;;;12.93;;
70132;SDS011;57495;49.922;7.966;2022-11-20T04:36:36;26.80;;;12.80;;
70132;SDS011;57495;49.922;7.966;2022-11-20T04:38:37;26.42;;;13.60;;
70132;SDS011;57495;49.922;7.966;2022-11-20T04:40:39;27.50;;;13.18;;
70132;SDS011;57495;49.922;7.966;2022-11-20T04:42:41;26.95;;;12.55;;
70132;SDS011;57495;49.922;7.966;2022-11-20T04:44:42;25.20;;;11.32;;
70132;SDS011;57495;49.922;7.966;2022-11-20T04:46:43;26.90;;;13.18;;
70132;SDS011;57495;49.922;7.966;2022-11-20T04:48:45;29.13;;;13.75;;
70132;SDS011;57495;49.922;7.966;2022-11-20T04:50:48;26.20;;;13.10;;
70132;SDS011;57495;49.922;7.966;2022-11-20T04:52:50;27.95;;;12.77;;
70132;SDS011;57495;49.922;7.966;2022-11-20T04:54:52;27.83;;;13.00;;
70132;SDS011;57495;49.922;7.966;2022-11-20T04:56:53;30.85;;;13.00;;
70132;SDS011;57495;49.922;7.966;2022-11-20T04:58:55;27.42;;;13.73;;
70132;SDS011;57495;49.922;7.966;2022-11-20T05:01:00;31.13;;;13.15;;
70132;SDS011;57495;49.922;7.966;2022-11-20T05:03:02;27.45;;;13.52;;
70132;SDS011;57495;49.922;7.966;2022-11-20T05:05:04;27.52;;;13.32;;
70132;SDS011;57495;49.922;7.966;2022-11-20T05:07:07;26.02;;;12.57;;
70132;SDS011;57495;49.922;7.966;2022-11-20T05:09:09;30.25;;;13.38;;
70132;SDS011;57495;49.922;7.966;2022-11-20T05:11:11;29.15;;;13.65;;
70132;SDS011;57495;49.922;7.966;2022-11-20T05:13:14;28.73;;;13.35;;
70132;SDS011;57495;49.922;7.966;2022-11-20T05:15:15;26.35;;;13.18;;
70132;SDS011;57495;49.922;7.966;2022-11-20T05:17:17;27.58;;;13.10;;
70132;SDS011;57495;49.922;7.966;2022-11-20T05:19:19;26.75;;;12.85;;
70132;SDS011;57495;49.922;7.966;2022-11-20T05:21:20;25.02;;;12.40;;
70132;SDS011;57495;49.922;7.966;2022-11-20T05:23:23;30.98;;;13.85;;
70132;SDS011;57495;49.922;7.966;2022-11-20T05:25:25;27.73;;;13.10;;
70132;SDS011;57495;49.922;7.966;2022-11-20T05:27:26;23.85;;;11.85;;
70132;SDS011;57495;49.922;7.966;2022-11-20T05:29:28;28.42;;;14.07;;
70132;SDS011;57495;49.922;7.966;2022-11-20T05:31:30;28.67;;;13.20;;
70132;SDS011;57495;49.922;7.966;2022-11-20T05:33:32;27.65;;;13.80;;
70132;SDS011;57495;49.922;7.966;2022-11-20T05:35:34;30.25;;;13.98;;
70132;SDS011;57495;49.922;7.966;2022-11-20T05:37:35;27.90;;;13.40;;
70132;SDS011;57495;49.922;7.966;2022-11-20T05:39:38;27.35;;;13.20;;
70132;SDS011;57495;49.922;7.966;2022-11-20T05:41:40;26.48;;;13.35;;
70132;SDS011;57495;49.922;7.966;2022-11-20T05:43:42;24.38;;;12.65;;
70132;SDS011;57495;49.922;7.966;2022-11-20T05:45:51;26.85;;;13.50;;
70132;SDS011;57495;49.922;7.966;2022-11-20T05:47:53;27.90;;;12.73;;
70132;SDS011;57495;49.922;7.966;2022-11-20T05:49:54;28.05;;;13.38;;
70132;SDS011;57495;49.922;7.966;2022-11-20T05:51:56;27.60;;;13.88;;
70132;SDS011;57495;49.922;7.966;2022-11-20T05:53:57;26.67;;;12.77;;
70132;SDS011;57495;49.922;7.966;2022-11-20T05:56:01;26.30;;;12.98;;
70132;SDS011;57495;49.922;7.966;2022-11-20T05:58:04;27.85;;;13.27;;
70132;SDS011;57495;49.922;7.966;2022-11-20T06:00:06;29.63;;;13.00;;
70132;SDS011;57495;49.922;7.966;2022-11-20T06:02:08;26.42;;;12.68;;
70132;SDS011;57495;49.922;7.966;2022-11-20T06:04:10;27.98;;;14.48;;
70132;SDS011;57495;49.922;7.966;2022-11-20T06:06:11;27.23;;;13.15;;
70132;SDS011;57495;49.922;7.966;2022-11-20T06:08:13;28.95;;;13.18;;
70132;SDS011;57495;49.922;7.966;2022-11-20T06:10:14;35.97;;;15.77;;
70132;SDS011;57495;49.922;7.966;2022-11-20T06:12:17;28.80;;;13.98;;
70132;SDS011;57495;49.922;7.966;2022-11-20T06:14:19;29.55;;;14.77;;
70132;SDS011;57495;49.922;7.966;2022-11-20T06:16:20;31.55;;;14.48;;
70132;SDS011;57495;49.922;7.966;2022-11-20T06:18:22;39.70;;;19.45;;
70132;SDS011;57495;49.922;7.966;2022-11-20T06:20:23;43.50;;;25.38;;
70132;SDS011;57495;49.922;7.966;2022-11-20T06:22:25;28.40;;;15.63;;
70132;SDS011;57495;49.922;7.966;2022-11-20T06:24:26;29.08;;;13.95;;
70132;SDS011;57495;49.922;7.966;2022-11-20T06:26:28;44.20;;;20.80;;
70132;SDS011;57495;49.922;7.966;2022-11-20T06:28:32;58.33;;;28.45;;
70132;SDS011;57495;49.922;7.966;2022-11-20T06:30:34;48.83;;;25.27;;
70132;SDS011;57495;49.922;7.966;2022-11-20T06:32:45;37.22;;;16.63;;
70132;SDS011;57495;49.922;7.966;2022-11-20T06:34:46;53.25;;;24.50;;
70132;SDS011;57495;49.922;7.966;2022-11-20T06:36:48;35.28;;;18.90;;
70132;SDS011;57495;49.922;7.966;2022-11-20T06:38:49;36.33;;;20.27;;
70132;SDS011;57495;49.922;7.966;2022-11-20T06:40:51;35.25;;;17.30;;
70132;SDS011;57495;49.922;7.966;2022-11-20T06:42:53;31.73;;;15.60;;
70132;SDS011;57495;49.922;7.966;2022-11-20T06:44:56;26.70;;;13.15;;
70132;SDS011;57495;49.922;7.966;2022-11-20T06:46:57;28.38;;;14.48;;
70132;SDS011;57495;49.922;7.966;2022-11-20T06:48:59;26.35;;;13.68;;
70132;SDS011;57495;49.922;7.966;2022-11-20T06:51:02;27.90;;;13.02;;
70132;SDS011;57495;49.922;7.966;2022-11-20T06:53:05;31.65;;;14.63;;
70132;SDS011;57495;49.922;7.966;2022-11-20T06:55:07;28.92;;;14.05;;
70132;SDS011;57495;49.922;7.966;2022-11-20T06:57:10;27.23;;;13.90;;
70132;SDS011;57495;49.922;7.966;2022-11-20T06:59:12;25.77;;;12.68;;
70132;SDS011;57495;49.922;7.966;2022-11-20T07:01:15;25.95;;;12.77;;
70132;SDS011;57495;49.922;7.966;2022-11-20T07:03:17;26.80;;;13.27;;
70132;SDS011;57495;49.922;7.966;2022-11-20T07:05:19;27.10;;;12.68;;
70132;SDS011;57495;49.922;7.966;2022-11-20T07:07:20;28.27;;;13.57;;
70132;SDS011;57495;49.922;7.966;2022-11-20T07:09:22;27.20;;;12.82;;
70132;SDS011;57495;49.922;7.966;2022-11-20T07:11:23;28.10;;;14.18;;
70132;SDS011;57495;49.922;7.966;2022-11-20T07:13:25;28.50;;;13.23;;
70132;SDS011;57495;49.922;7.966;2022-11-20T07:15:30;28.40;;;12.43;;
70132;SDS011;57495;49.922;7.966;2022-11-20T07:17:33;27.67;;;12.70;;
70132;SDS011;57495;49.922;7.966;2022-11-20T07:19:34;26.42;;;13.38;;
70132;SDS011;57495;49.922;7.966;2022-11-20T07:21:36;27.95;;;13.77;;
70132;SDS011;57495;49.922;7.966;2022-11-20T07:23:37;30.48;;;13.90;;
70132;SDS011;57495;49.922;7.966;2022-11-20T07:25:39;28.95;;;13.30;;
70132;SDS011;57495;49.922;7.966;2022-11-20T07:27:40;28.23;;;13.32;;
70132;SDS011;57495;49.922;7.966;2022-11-20T07:29:42;31.15;;;15.00;;
70132;SDS011;57495;49.922;7.966;2022-11-20T07:31:43;35.30;;;14.85;;
70132;SDS011;57495;49.922;7.966;2022-11-20T07:33:46;31.95;;;14.07;;
70132;SDS011;57495;49.922;7.966;2022-11-20T07:35:48;29.60;;;13.85;;
70132;SDS011;57495;49.922;7.966;2022-11-20T07:37:49;29.02;;;13.48;;
70132;SDS011;57495;49.922;7.966;2022-11-20T07:39:51;26.80;;;12.60;;
70132;SDS011;57495;49.922;7.966;2022-11-20T07:41:52;30.00;;;13.30;;
70132;SDS011;57495;49.922;7.966;2022-11-20T07:43:54;28.15;;;12.80;;
70132;SDS011;57495;49.922;7.966;2022-11-20T07:45:55;26.80;;;12.50;;
70132;SDS011;57495;49.922;7.966;2022-11-20T07:47:57;27.50;;;12.23;;
70132;SDS011;57495;49.922;7.966;2022-11-20T07:50:00;26.98;;;12.82;;
70132;SDS011;57495;49.922;7.966;2022-11-20T07:52:02;28.48;;;13.57;;
70132;SDS011;57495;49.922;7.966;2022-11-20T07:54:03;27.98;;;13.18;;
70132;SDS011;57495;49.922;7.966;2022-11-20T07:56:05;26.15;;;11.90;;
70132;SDS011;57495;49.922;7.966;2022-11-20T07:58:07;29.92;;;13.15;;
70132;SDS011;57495;49.922;7.966;2022-11-20T08:00:09;28.50;;;13.27;;
70132;SDS011;57495;49.922;7.966;2022-11-20T08:02:12;29.50;;;13.18;;
70132;SDS011;57495;49.922;7.966;2022-11-20T08:04:13;26.40;;;11.90;;
70132;SDS011;57495;49.922;7.966;2022-11-20T08:06:17;27.30;;;13.55;;
70132;SDS011;57495;49.922;7.966;2022-11-20T08:08:20;27.98;;;12.45;;
70132;SDS011;57495;49.922;7.966;2022-11-20T08:10:21;28.23;;;12.88;;
70132;SDS011;57495;49.922;7.966;2022-11-20T08:12:23;27.95;;;12.55;;
70132;SDS011;57495;49.922;7.966;2022-11-20T08:14:42;26.27;;;12.75;;
70132;SDS011;57495;49.922;7.966;2022-11-20T08:16:44;26.60;;;12.50;;
70132;SDS011;57495;49.922;7.966;2022-11-20T08:18:47;26.80;;;12.50;;
70132;SDS011;57495;49.922;7.966;2022-11-20T08:20:49;28.30;;;13.50;;
70132;SDS011;57495;49.922;7.966;2022-11-20T08:22:52;26.88;;;12.90;;
70132;SDS011;57495;49.922;7.966;2022-11-20T08:24:53;28.42;;;13.43;;
70132;SDS011;57495;49.922;7.966;2022-11-20T08:26:56;26.80;;;13.02;;
70132;SDS011;57495;49.922;7.966;2022-11-20T08:28:59;25.23;;;11.93;;
70132;SDS011;57495;49.922;7.966;2022-11-20T08:31:00;24.35;;;11.55;;
70132;SDS011;57495;49.922;7.966;2022-11-20T08:33:06;21.55;;;10.45;;
70132;SDS011;57495;49.922;7.966;2022-11-20T08:35:09;26.85;;;12.32;;
70132;SDS011;57495;49.922;7.966;2022-11-20T08:37:10;29.45;;;12.50;;
70132;SDS011;57495;49.922;7.966;2022-11-20T08:39:13;25.95;;;12.68;;
70132;SDS011;57495;49.922;7.966;2022-11-20T08:41:15;25.67;;;11.45;;
70132;SDS011;57495;49.922;7.966;2022-11-20T08:43:26;27.05;;;12.88;;
70132;SDS011;57495;49.922;7.966;2022-11-20T08:45:33;25.77;;;13.02;;
70132;SDS011;57495;49.922;7.966;2022-11-20T08:47:35;24.38;;;12.23;;
70132;SDS011;57495;49.922;7.966;2022-11-20T08:49:36;25.75;;;12.25;;
70132;SDS011;57495;49.922;7.966;2022-11-20T08:51:38;28.98;;;13.70;;
70132;SDS011;57495;49.922;7.966;2022-11-20T08:53:40;25.63;;;12.25;;
70132;SDS011;57495;49.922;7.966;2022-11-20T08:55:43;25.30;;;11.50;;
70132;SDS011;57495;49.922;7.966;2022-11-20T08:57:44;24.95;;;11.10;;
70132;SDS011;57495;49.922;7.966;2022-11-20T08:59:45;26.40;;;12.20;;
70132;SDS011;57495;49.922;7.966;2022-11-20T09:01:47;28.95;;;13.75;;
70132;SDS011;57495;49.922;7.966;2022-11-20T09:03:48;35.42;;;16.60;;
70132;SDS011;57495;49.922;7.966;2022-11-20T09:05:50;27.17;;;13.13;;
70132;SDS011;57495;49.922;7.966;2022-11-20T09:07:52;25.35;;;12.20;;
70132;SDS011;57495;49.922;7.966;2022-11-20T09:09:56;25.27;;;11.85;;
70132;SDS011;57495;49.922;7.966;2022-11-20T09:11:59;24.25;;;10.55;;
70132;SDS011;57495;49.922;7.966;2022-11-20T09:14:01;21.83;;;10.57;;
70132;SDS011;57495;49.922;7.966;2022-11-20T09:16:04;24.70;;;11.57;;
70132;SDS011;57495;49.922;7.966;2022-11-20T09:18:07;23.15;;;11.07;;
70132;SDS011;57495;49.922;7.966;2022-11-20T09:20:09;24.98;;;12.23;;
70132;SDS011;57495;49.922;7.966;2022-11-20T09:22:10;24.00;;;11.43;;
70132;SDS011;57495;49.922;7.966;2022-11-20T09:24:12;22.08;;;10.82;;
70132;SDS011;57495;49.922;7.966;2022-11-20T09:26:14;22.98;;;10.43;;
70132;SDS011;57495;49.922;7.966;2022-11-20T09:28:17;21.33;;;10.65;;
70132;SDS011;57495;49.922;7.966;2022-11-20T09:30:19;21.73;;;10.43;;
70132;SDS011;57495;49.922;7.966;2022-11-20T09:32:20;22.10;;;10.63;;
70132;SDS011;57495;49.922;7.966;2022-11-20T09:34:22;22.25;;;11.13;;
70132;SDS011;57495;49.922;7.966;2022-11-20T09:36:23;21.45;;;10.43;;
70132;SDS011;57495;49.922;7.966;2022-11-20T09:38:28;21.40;;;10.20;;
70132;SDS011;57495;49.922;7.966;2022-11-20T09:40:29;17.90;;;8.98;;
70132;SDS011;57495;49.922;7.966;2022-11-20T09:42:32;18.77;;;9.15;;
70132;SDS011;57495;49.922;7.966;2022-11-20T09:47:16;21.48;;;10.18;;
70132;SDS011;57495;49.922;7.966;2022-11-20T09:49:30;21.00;;;10.02;;
70132;SDS011;57495;49.922;7.966;2022-11-20T09:51:41;19.42;;;9.60;;
70132;SDS011;57495;49.922;7.966;2022-11-20T09:53:51;19.25;;;9.02;;
70132;SDS011;57495;49.922;7.966;2022-11-20T09:55:59;22.63;;;9.93;;
70132;SDS011;57495;49.922;7.966;2022-11-20T09:58:04;21.08;;;10.32;;
70132;SDS011;57495;49.922;7.966;2022-11-20T10:00:10;18.77;;;9.00;;
70132;SDS011;57495;49.922;7.966;2022-11-20T10:02:19;19.52;;;8.60;;
70132;SDS011;57495;49.922;7.966;2022-11-20T10:04:30;19.52;;;9.70;;
70132;SDS011;57495;49.922;7.966;2022-11-20T10:06:34;21.33;;;10.52;;
70132;SDS011;57495;49.922;7.966;2022-11-20T10:08:44;19.40;;;8.82;;
70132;SDS011;57495;49.922;7.966;2022-11-20T10:10:51;20.58;;;10.25;;
70132;SDS011;57495;49.922;7.966;2022-11-20T10:13:05;19.92;;;9.23;;
70132;SDS011;57495;49.922;7.966;2022-11-20T10:15:25;19.50;;;9.82;;
70132;SDS011;57495;49.922;7.966;2022-11-20T10:17:51;18.80;;;9.15;;
70132;SDS011;57495;49.922;7.966;2022-11-20T10:20:08;20.88;;;9.98;;
70132;SDS011;57495;49.922;7.966;2022-11-20T10:22:21;23.42;;;11.02;;
70132;SDS011;57495;49.922;7.966;2022-11-20T10:24:43;22.92;;;11.07;;
70132;SDS011;57495;49.922;7.966;2022-11-20T10:26:51;23.70;;;11.13;;
70132;SDS011;57495;49.922;7.966;2022-11-20T10:29:03;23.70;;;11.02;;
70132;SDS011;57495;49.922;7.966;2022-11-20T10:31:13;23.15;;;11.13;;
70132;SDS011;57495;49.922;7.966;2022-11-20T10:33:25;22.48;;;11.07;;
70132;SDS011;57495;49.922;7.966;2022-11-20T10:35:32;23.27;;;11.68;;
70132;SDS011;57495;49.922;7.966;2022-11-20T10:37:38;24.15;;;12.02;;
70132;SDS011;57495;49.922;7.966;2022-11-20T10:39:47;25.17;;;10.95;;
70132;SDS011;57495;49.922;7.966;2022-11-20T10:41:54;20.50;;;10.68;;
70132;SDS011;57495;49.922;7.966;2022-11-20T10:44:00;21.70;;;11.38;;
70132;SDS011;57495;49.922;7.966;2022-11-20T10:46:07;24.20;;;11.85;;
70132;SDS011;57495;49.922;7.966;2022-11-20T10:48:20;21.45;;;10.52;;
70132;SDS011;57495;49.922;7.966;2022-11-20T10:50:23;22.13;;;11.25;;
70132;SDS011;57495;49.922;7.966;2022-11-20T10:52:26;21.20;;;10.82;;
70132;SDS011;57495;49.922;7.966;2022-11-20T10:54:36;21.20;;;9.88;;
70132;SDS011;57495;49.922;7.966;2022-11-20T10:56:45;21.23;;;9.80;;
70132;SDS011;57495;49.922;7.966;2022-11-20T10:58:51;19.67;;;10.25;;
70132;SDS011;57495;49.922;7.966;2022-11-20T11:01:04;22.27;;;10.60;;
70132;SDS011;57495;49.922;7.966;2022-11-20T11:03:13;21.05;;;9.95;;
70132;SDS011;57495;49.922;7.966;2022-11-20T11:05:27;38.67;;;19.25;;
70132;SDS011;57495;49.922;7.966;2022-11-20T11:07:35;19.30;;;9.90;;
70132;SDS011;57495;49.922;7.966;2022-11-20T11:09:43;18.45;;;9.50;;
70132;SDS011;57495;49.922;7.966;2022-11-20T11:11:47;20.58;;;10.38;;
70132;SDS011;57495;49.922;7.966;2022-11-20T11:13:49;18.85;;;8.93;;
70132;SDS011;57495;49.922;7.966;2022-11-20T11:15:50;20.25;;;9.77;;
70132;SDS011;57495;49.922;7.966;2022-11-20T11:17:52;20.58;;;10.32;;
70132;SDS011;57495;49.922;7.966;2022-11-20T11:20:02;17.73;;;8.88;;
70132;SDS011;57495;49.922;7.966;2022-11-20T11:22:06;18.33;;;9.43;;
70132;SDS011;57495;49.922;7.966;2022-11-20T11:24:20;19.17;;;9.00;;
70132;SDS011;57495;49.922;7.966;2022-11-20T11:26:23;19.10;;;9.30;;
70132;SDS011;57495;49.922;7.966;2022-11-20T11:28:26;19.38;;;9.90;;
70132;SDS011;57495;49.922;7.966;2022-11-20T11:30:29;19.13;;;9.40;;
70132;SDS011;57495;49.922;7.966;2022-11-20T11:32:41;18.05;;;8.88;;
70132;SDS011;57495;49.922;7.966;2022-11-20T11:34:43;19.30;;;9.30;;
70132;SDS011;57495;49.922;7.966;2022-11-20T11:37:01;18.60;;;9.52;;
70132;SDS011;57495;49.922;7.966;2022-11-20T11:39:05;17.27;;;9.05;;
70132;SDS011;57495;49.922;7.966;2022-11-20T11:41:12;16.17;;;8.52;;
70132;SDS011;57495;49.922;7.966;2022-11-20T11:43:18;17.65;;;9.35;;
70132;SDS011;57495;49.922;7.966;2022-11-20T11:45:39;19.92;;;10.05;;
70132;SDS011;57495;49.922;7.966;2022-11-20T11:47:53;17.95;;;9.45;;
70132;SDS011;57495;49.922;7.966;2022-11-20T11:50:01;18.55;;;9.65;;
70132;SDS011;57495;49.922;7.966;2022-11-20T11:52:08;18.23;;;8.15;;
70132;SDS011;57495;49.922;7.966;2022-11-20T11:54:15;18.23;;;8.88;;
70132;SDS011;57495;49.922;7.966;2022-11-20T11:56:20;16.85;;;8.93;;
70132;SDS011;57495;49.922;7.966;2022-11-20T11:58:34;18.38;;;9.65;;
70132;SDS011;57495;49.922;7.966;2022-11-20T12:00:47;18.67;;;9.45;;
70132;SDS011;57495;49.922;7.966;2022-11-20T12:02:57;18.20;;;9.30;;
70132;SDS011;57495;49.922;7.966;2022-11-20T12:05:13;20.92;;;10.40;;
70132;SDS011;57495;49.922;7.966;2022-11-20T12:07:22;23.92;;;10.60;;